Flight Track Log - Related Links

Times and Time Zones

All times are in EDT time to prevent confusion due to time zone crossing. See the AAL759 flight status page for this flight to view local times or setup timezone preferences in your user account.

Time Position Orientation Groundspeed Altitude Reporting Facility
EDT Latitude Longitude Course Direction KTS MPH feet Rate Location/Type
Fri 03:56:32 PM 40.7667 -73.9461 46° Northeast  Level FlightAware Approximate
Fri 03:57:22 PM 40.8231 -73.8697 North 168 193 1,600  Level New York Center
Fri 03:57:50 PM 40.8500 -73.8667 303° West 209 241 2,200 2,483 Climbing New York TRACON
Fri 03:58:49 PM 40.8833 -73.9333 261° West 255 293 5,200 3,281 Climbing New York TRACON
Fri 04:00:09 PM 40.8689 -74.0567 267° West 268 308 9,800 3,025 Climbing FlightAware ADS-B
Fri 04:00:50 PM 40.8667 -74.1167 249° West 272 313 11,300 1,604 Climbing New York TRACON
Fri 04:01:50 PM 40.8333 -74.2333 258° West 355 409 12,500 2,092 Climbing New York TRACON
Fri 04:03:22 PM 40.8033 -74.4172 257° West 369 425 16,600 1,776 Climbing New York Center
Fri 04:04:22 PM 40.7778 -74.5608 258° West 369 425 17,000 180 Climbing New York Center
Fri 04:05:35 PM 40.7594 -74.6778 256° West 369 425 17,000  Level New York Center
Fri 04:06:35 PM 40.7292 -74.8350 255° West 375 432 17,000 50 Level New York Center
Fri 04:07:36 PM 40.7014 -74.9756 253° West 370 426 17,100 756 Climbing New York Center
Fri 04:08:34 PM 40.6717 -75.1050 240° Southwest 370 426 18,500 1,576 Climbing New York Center
Fri 04:09:34 PM 40.6217 -75.2194 239° Southwest 385 443 20,200 1,800 Climbing New York Center
Fri 04:10:34 PM 40.5625 -75.3494 238° Southwest 404 465 22,100 1,850 Climbing New York Center
Fri 04:11:34 PM 40.5033 -75.4739 237° Southwest 410 472 23,900 1,850 Climbing New York Center
Fri 04:12:34 PM 40.4283 -75.6269 239° Southwest 442 509 25,800 1,550 Climbing New York Center
Fri 04:13:34 PM 40.3708 -75.7536 239° Southwest 447 514 27,000 1,250 Climbing New York Center
Fri 04:14:34 PM 40.2997 -75.9092 244° Southwest 458 527 28,300 1,140 Climbing New York Center
Fri 04:15:35 PM 40.2547 -76.0308 245° Southwest 453 521 29,300 1,438 Climbing New York Center
Fri 04:16:35 PM 40.1903 -76.2108 261° West 462 532 31,200 1,636 Climbing New York Center
Fri 04:17:36 PM 40.1728 -76.3589 263° West 430 495 32,600 893 Climbing New York Center
Fri 04:18:36 PM 40.1592 -76.5128 253° West 430 495 33,000 915 Climbing New York Center
Fri 04:20:33 PM 40.0994 -76.7739 243° Southwest 420 483 35,300 1,051 Climbing Washington Center
Fri 04:21:33 PM 40.0439 -76.9139 241° Southwest 420 483 36,100 893 Climbing Washington Center
Fri 04:22:34 PM 39.9819 -77.0617 243° Southwest 430 495 37,100 814 Climbing Washington Center
Fri 04:23:31 PM 39.9303 -77.1933 242° Southwest 425 489 37,700 410 Climbing Washington Center
Fri 04:24:31 PM 39.8742 -77.3325 243° Southwest 425 489 37,900 149 Climbing Washington Center
Fri 04:25:32 PM 39.8200 -77.4689 240° Southwest 425 489 38,000 50 Climbing Washington Center
Fri 04:26:32 PM 39.7617 -77.5997 243° Southwest 425 489 38,000  Level Washington Center
Fri 04:27:33 PM 39.7072 -77.7358 241° Southwest 425 489 38,000  Level Washington Center
Fri 04:28:31 PM 39.6506 -77.8689 241° Southwest 425 489 38,000  Level Washington Center
Fri 04:29:32 PM 39.5958 -77.9992 242° Southwest 425 489 38,000  Level Washington Center
Fri 04:30:32 PM 39.5411 -78.1319 243° Southwest 425 489 38,000  Level Washington Center
Fri 04:31:33 PM 39.4903 -78.2592 241° Southwest 425 489 38,000  Level Washington Center
Fri 04:32:31 PM 39.4353 -78.3889 241° Southwest 420 483 38,000  Level Washington Center
Fri 04:33:32 PM 39.3803 -78.5183 241° Southwest 415 478 38,000  Level Washington Center
Fri 04:34:33 PM 39.3314 -78.6344 241° Southwest 415 478 38,000  Level Washington Center
Fri 04:35:34 PM 39.2761 -78.7608 241° Southwest 410 472 38,000  Level Washington Center
Fri 04:36:31 PM 39.2206 -78.8897 241° Southwest 415 478 38,000  Level Washington Center
Fri 04:37:33 PM 39.1647 -79.0211 251° West 415 478 38,000  Level Washington Center
Fri 04:38:33 PM 39.1272 -79.1611 253° West 415 478 38,000  Level Washington Center
Fri 04:39:31 PM 39.0939 -79.2986 250° West 410 472 38,000  Level Washington Center
Fri 04:40:31 PM 39.0542 -79.4381 250° West 410 472 38,000  Level Washington Center
Fri 04:41:33 PM 39.0094 -79.5933 249° West 421 484 38,000  Level Washington Center
Fri 04:43:04 PM 38.9467 -79.8053 249° West 434 499 38,000  Level Indianapolis Center
Fri 04:44:04 PM 38.9072 -79.9383 251° West 422 486 38,000  Level Indianapolis Center
Fri 04:45:04 PM 38.8733 -80.0628 248° West 416 479 38,000  Level Indianapolis Center
Fri 04:46:04 PM 38.8294 -80.2008 249° West 402 463 38,000  Level Indianapolis Center
Fri 04:47:04 PM 38.7872 -80.3386 248° West 402 463 38,000  Level Indianapolis Center
Fri 04:48:04 PM 38.7469 -80.4683 249° West 402 463 38,000  Level Indianapolis Center
Fri 04:49:04 PM 38.7067 -80.6056 249° West 402 463 38,000  Level Indianapolis Center
Fri 04:50:04 PM 38.6739 -80.7133 249° West 407 468 38,000  Level Indianapolis Center
Fri 04:51:04 PM 38.6256 -80.8775 247° West 412 474 38,000  Level Indianapolis Center
Fri 04:52:04 PM 38.5828 -81.0092 249° West 412 474 38,000  Level Indianapolis Center
Fri 04:53:04 PM 38.5494 -81.1192 248° West 417 480 38,000  Level Indianapolis Center
Fri 04:54:06 PM 38.5025 -81.2667 250° West 411 473 38,000 -43 Level Indianapolis Center
Fri 04:55:22 PM 38.4448 -81.4646 249° West 402 463 37,900 -336 Descending FlightAware ADS-B
Fri 04:55:53 PM 38.4242 -81.5314 248° West 402 463 37,400 -1,377 Descending FlightAware ADS-B
Fri 04:56:23 PM 38.4037 -81.5977 248° West 404 465 36,500 -1,304 Descending FlightAware ADS-B
Fri 04:57:02 PM 38.3768 -81.6837 248° West 402 463 35,900 -917 Descending FlightAware ADS-B
Fri 04:57:35 PM 38.3539 -81.7570 251° West 405 466 35,400 -730 Descending FlightAware ADS-B
Fri 04:58:16 PM 38.3328 -81.8333 250° West 412 474 35,000 -238 Descending Indianapolis Center
Fri 04:59:16 PM 38.2931 -81.9694 251° West 412 474 35,000 -150 Level Indianapolis Center
Fri 05:00:16 PM 38.2550 -82.1078 250° West 417 480 34,700 -500 Descending Indianapolis Center
Fri 05:01:16 PM 38.2150 -82.2486 250° West 417 480 34,000 -321 Descending Indianapolis Center
Fri 05:02:27 PM 38.1623 -82.4337 250° West 425 489 34,000  Level FlightAware ADS-B
Fri 05:02:58 PM 38.1414 -82.5069 250° West 426 490 34,000  Level FlightAware ADS-B
Fri 05:03:29 PM 38.1204 -82.5808 250° West 425 489 34,000  Level FlightAware ADS-B
Fri 05:04:03 PM 38.0975 -82.6601 250° West 425 489 34,000  Level FlightAware ADS-B
Fri 05:04:33 PM 38.0771 -82.7306 250° West 425 489 34,000  Level FlightAware ADS-B
Fri 05:05:04 PM 38.0568 -82.8009 250° West 425 489 34,000  Level FlightAware ADS-B
Fri 05:05:36 PM 38.0346 -82.8772 250° West 425 489 34,000  Level FlightAware ADS-B
Fri 05:06:10 PM 38.0116 -82.9563 250° West 425 489 34,000  Level FlightAware ADS-B
Fri 05:06:41 PM 37.9904 -83.0289 250° West 425 489 34,000  Level FlightAware ADS-B
Fri 05:07:12 PM 37.9695 -83.1001 250° West 426 490 34,000  Level FlightAware ADS-B
Fri 05:07:52 PM 37.9417 -83.1946 250° West 425 489 34,000  Level FlightAware ADS-B
Fri 05:08:24 PM 37.9201 -83.2680 250° West 426 490 34,000  Level FlightAware ADS-B
Fri 05:09:22 PM 37.8804 -83.4029 249° West 425 489 34,000  Level FlightAware ADS-B
Fri 05:09:52 PM 37.8596 -83.4732 249° West 425 489 34,000  Level FlightAware ADS-B
Fri 05:10:27 PM 37.8354 -83.5545 249° West 425 489 34,000  Level FlightAware ADS-B
Fri 05:10:59 PM 37.8136 -83.6274 249° West 425 489 34,000  Level FlightAware ADS-B
Fri 05:11:32 PM 37.7906 -83.7040 249° West 427 491 34,000  Level FlightAware ADS-B
Fri 05:12:04 PM 37.7677 -83.7805 249° West 428 493 34,000  Level FlightAware ADS-B
Fri 05:12:35 PM 37.7462 -83.8521 249° West 428 493 34,000  Level FlightAware ADS-B
Fri 05:13:06 PM 37.7242 -83.9252 249° West 430 495 34,000  Level FlightAware ADS-B
Fri 05:13:40 PM 37.7015 -84.0002 249° West 430 495 34,000  Level FlightAware ADS-B
Fri 05:14:10 PM 37.6787 -84.0754 249° West 431 496 34,000  Level FlightAware ADS-B
Fri 05:14:42 PM 37.6563 -84.1490 249° West 430 495 34,000  Level FlightAware ADS-B
Fri 05:15:12 PM 37.6346 -84.2201 249° West 431 496 34,000  Level FlightAware ADS-B
Fri 05:15:43 PM 37.6129 -84.2910 249° West 431 496 34,000  Level FlightAware ADS-B
Fri 05:16:13 PM 37.5913 -84.3612 249° West 431 496 34,000  Level FlightAware ADS-B
Fri 05:16:45 PM 37.5678 -84.4374 249° West 431 496 34,000  Level FlightAware ADS-B
Fri 05:17:16 PM 37.5461 -84.5077 249° West 431 496 34,000  Level FlightAware ADS-B
Fri 05:17:47 PM 37.5234 -84.5808 249° West 432 497 34,000  Level FlightAware ADS-B
Fri 05:18:17 PM 37.5014 -84.6519 249° West 430 495 34,000  Level FlightAware ADS-B
Fri 05:18:47 PM 37.4794 -84.7223 249° West 430 495 34,000  Level FlightAware ADS-B
Fri 05:19:17 PM 37.4577 -84.7923 249° West 430 495 34,000  Level FlightAware ADS-B
Fri 05:19:48 PM 37.4361 -84.8624 249° West 428 493 34,000  Level FlightAware ADS-B
Fri 05:20:18 PM 37.4143 -84.9327 249° West 427 491 34,000  Level FlightAware ADS-B
Fri 05:20:49 PM 37.3921 -85.0038 248° West 425 489 34,000  Level FlightAware ADS-B
Fri 05:21:20 PM 37.3699 -85.0746 248° West 425 489 34,000  Level FlightAware ADS-B
Fri 05:21:50 PM 37.3482 -85.1433 248° West 423 487 34,000  Level FlightAware ADS-B
Fri 05:22:20 PM 37.3266 -85.2116 248° West 420 483 34,000  Level FlightAware ADS-B
Fri 05:22:50 PM 37.3051 -85.2795 248° West 416 479 34,000  Level FlightAware ADS-B
Fri 05:23:22 PM 37.2826 -85.3507 248° West 414 476 34,000  Level FlightAware ADS-B
Fri 05:23:58 PM 37.2570 -85.4309 248° West 412 474 34,000  Level FlightAware ADS-B
Fri 05:24:30 PM 37.2348 -85.5003 248° West 409 471 34,000  Level FlightAware ADS-B
Fri 05:25:09 PM 37.2070 -85.5873 248° West 407 468 34,000  Level FlightAware ADS-B
Fri 05:25:47 PM 37.1810 -85.6683 248° West 407 468 34,000  Level FlightAware ADS-B
Fri 05:26:38 PM 37.1447 -85.7814 248° West 407 468 34,000  Level FlightAware ADS-B
Fri 05:27:11 PM 37.1220 -85.8518 248° West 406 467 34,000  Level FlightAware ADS-B
Fri 05:27:41 PM 37.1007 -85.9176 248° West 407 468 34,000  Level FlightAware ADS-B
Fri 05:28:11 PM 37.0792 -85.9840 248° West 408 470 34,000  Level FlightAware ADS-B
Fri 05:28:42 PM 37.0570 -86.0521 248° West 408 470 34,000  Level FlightAware ADS-B
Fri 05:29:14 PM 37.0342 -86.1221 248° West 409 471 34,000  Level FlightAware ADS-B
Fri 05:29:45 PM 37.0122 -86.1893 248° West 410 472 34,000  Level FlightAware ADS-B
Fri 05:30:15 PM 36.9905 -86.2555 248° West 411 473 34,000  Level FlightAware ADS-B
Fri 05:30:46 PM 36.9679 -86.3241 248° West 413 475 34,000  Level FlightAware ADS-B
Fri 05:31:19 PM 36.9447 -86.3948 245° Southwest 414 476 34,000  Level FlightAware ADS-B
Fri 05:31:24 PM 36.9401 -86.4072 237° Southwest 416 479 34,000  Level FlightAware ADS-B
Fri 05:31:49 PM 36.9142 -86.4574 226° Southwest 424 488 34,000  Level FlightAware ADS-B
Fri 05:32:09 PM 36.8864 -86.4930 223° Southwest 431 496 34,000  Level FlightAware ADS-B
Fri 05:32:39 PM 36.8425 -86.5448 223° Southwest 432 497 34,000  Level FlightAware ADS-B
Fri 05:33:10 PM 36.7978 -86.5972 223° Southwest 432 497 34,000  Level FlightAware ADS-B
Fri 05:33:45 PM 36.7461 -86.6578 223° Southwest 433 498 34,000  Level FlightAware ADS-B
Fri 05:34:16 PM 36.7016 -86.7095 223° Southwest 433 498 34,000  Level FlightAware ADS-B
Fri 05:34:46 PM 36.6578 -86.7606 224° Southwest 432 497 34,000  Level FlightAware ADS-B
Fri 05:36:09 PM 36.5539 -86.8853 224° Southwest 435 501 34,000  Level Memphis Center
Fri 05:37:09 PM 36.4672 -86.9894 223° Southwest 435 501 34,000  Level Memphis Center
Fri 05:38:08 PM 36.3783 -87.0911 222° Southwest 440 506 34,000  Level Memphis Center
Fri 05:39:08 PM 36.2911 -87.1875 223° Southwest 429 494 34,000  Level Memphis Center
Fri 05:40:08 PM 36.2081 -87.2831 222° Southwest 418 481 34,000  Level Memphis Center
Fri 05:41:09 PM 36.1228 -87.3789 223° Southwest 418 481 34,000  Level Memphis Center
Fri 05:42:08 PM 36.0294 -87.4850 224° Southwest 418 481 34,000  Level Memphis Center
Fri 05:43:08 PM 35.9461 -87.5828 221° Southwest 412 474 34,000  Level Memphis Center
Fri 05:44:08 PM 35.8583 -87.6753 224° Southwest 412 474 34,000  Level Memphis Center
Fri 05:45:08 PM 35.7750 -87.7753 222° Southwest 417 480 34,000  Level Memphis Center
Fri 05:46:09 PM 35.6914 -87.8675 223° Southwest 411 473 34,000  Level Memphis Center
Fri 05:47:08 PM 35.6100 -87.9617 222° Southwest 411 473 34,000  Level Memphis Center
Fri 05:48:08 PM 35.5242 -88.0561 222° Southwest 411 473 34,000  Level Memphis Center
Fri 05:49:08 PM 35.4422 -88.1475 222° Southwest 411 473 34,000  Level Memphis Center
Fri 05:50:08 PM 35.3686 -88.2283 223° Southwest 404 465 34,000  Level Memphis Center
Fri 05:51:08 PM 35.2889 -88.3194 222° Southwest 404 465 34,000  Level Memphis Center
Fri 05:52:08 PM 35.2069 -88.4103 221° Southwest 404 465 34,000  Level Memphis Center
Fri 05:53:08 PM 35.1186 -88.5039 222° Southwest 404 465 34,000  Level Memphis Center
Fri 05:54:09 PM 35.0364 -88.5944 221° Southwest 404 465 34,000  Level Memphis Center
Fri 05:55:08 PM 34.9522 -88.6850 221° Southwest 404 465 34,000  Level Memphis Center
Fri 05:56:08 PM 34.8700 -88.7725 221° Southwest 404 465 34,000  Level Memphis Center
Fri 05:57:08 PM 34.7875 -88.8600 222° Southwest 404 465 34,000  Level Memphis Center
Fri 05:58:08 PM 34.7133 -88.9422 233° Southwest 404 465 34,000  Level Memphis Center
Fri 05:59:08 PM 34.6478 -89.0494 266° West 404 465 34,000  Level Memphis Center
Fri 06:00:09 PM 34.6408 -89.1833 266° West 383 441 34,000  Level Memphis Center
Fri 06:01:09 PM 34.6336 -89.3172 265° West 397 457 34,000  Level Memphis Center
Fri 06:02:09 PM 34.6242 -89.4511 266° West 402 463 34,000  Level Memphis Center
Fri 06:03:08 PM 34.6147 -89.6000 265° West 407 468 34,000  Level Memphis Center
Fri 06:04:08 PM 34.6053 -89.7364 266° West 407 468 34,000  Level Memphis Center
Fri 06:05:08 PM 34.5975 -89.8728 267° West 407 468 34,000  Level Memphis Center
Fri 06:06:09 PM 34.5917 -90.0089 265° West 407 468 34,000  Level Memphis Center
Fri 06:07:09 PM 34.5817 -90.1478 267° West 407 468 34,000  Level Memphis Center
Fri 06:08:08 PM 34.5756 -90.2714 266° West 407 468 34,000  Level Memphis Center
Fri 06:09:09 PM 34.5672 -90.4075 265° West 407 468 34,000  Level Memphis Center
Fri 06:10:09 PM 34.5567 -90.5489 266° West 413 475 34,000  Level Memphis Center
Fri 06:11:08 PM 34.5478 -90.6900 265° West 418 481 34,000  Level Memphis Center
Fri 06:12:09 PM 34.5369 -90.8311 266° West 423 487 34,000  Level Memphis Center
Fri 06:13:08 PM 34.5281 -90.9747 265° West 423 487 34,000  Level Memphis Center
Fri 06:14:08 PM 34.5167 -91.1283 265° West 423 487 34,000  Level Memphis Center
Fri 06:15:09 PM 34.5075 -91.2669 265° West 423 487 34,000  Level Memphis Center
Fri 06:16:09 PM 34.4981 -91.4081 263° West 423 487 34,000  Level Memphis Center
Fri 06:17:09 PM 34.4842 -91.5464 265° West 423 487 34,000  Level Memphis Center
Fri 06:18:09 PM 34.4744 -91.6847 263° West 423 487 34,000  Level Memphis Center
Fri 06:19:09 PM 34.4628 -91.8081 264° West 423 487 34,000  Level Memphis Center
Fri 06:20:09 PM 34.4506 -91.9464 265° West 423 487 34,000  Level Memphis Center
Fri 06:21:08 PM 34.4406 -92.0872 265° West 423 487 34,000  Level Memphis Center
Fri 06:22:09 PM 34.4300 -92.2256 265° West 423 487 34,000  Level Memphis Center
Fri 06:23:09 PM 34.4197 -92.3639 255° West 423 487 34,000  Level Memphis Center
Fri 06:24:09 PM 34.3903 -92.4939 258° West 418 481 34,000  Level Memphis Center
Fri 06:25:08 PM 34.3669 -92.6292 255° West 413 475 34,000  Level Memphis Center
Fri 06:26:09 PM 34.3375 -92.7619 258° West 413 475 34,000  Level Memphis Center
Fri 06:27:09 PM 34.3117 -92.9094 255° West 413 475 34,000  Level Memphis Center
Fri 06:28:09 PM 34.2817 -93.0417 253° West 413 475 34,000  Level Memphis Center
Fri 06:29:08 PM 34.2497 -93.1714 257° West 413 475 34,000  Level Memphis Center
Fri 06:30:09 PM 34.2236 -93.3061 253° West 413 475 34,000  Level Memphis Center
Fri 06:31:09 PM 34.1911 -93.4381 257° West 413 475 34,000  Level Memphis Center
Fri 06:32:22 PM 34.1592 -93.5986 255° West 414 476 34,000  Level Fort Worth Center
Fri 06:33:22 PM 34.1297 -93.7303 255° West 414 476 34,000  Level Fort Worth Center
Fri 06:34:22 PM 34.1000 -93.8594 254° West 414 476 34,000  Level Fort Worth Center
Fri 06:35:22 PM 34.0683 -93.9911 255° West 414 476 34,000  Level Fort Worth Center
Fri 06:36:22 PM 34.0386 -94.1253 255° West 414 476 34,000  Level Fort Worth Center
Fri 06:37:22 PM 34.0086 -94.2592 261° West 421 484 34,000  Level Fort Worth Center
Fri 06:38:22 PM 33.9892 -94.4000 280° West 421 484 34,000  Level Fort Worth Center
Fri 06:39:22 PM 34.0092 -94.5422 281° West 421 484 34,000  Level Fort Worth Center
Fri 06:40:22 PM 34.0311 -94.6817 280° West 426 490 34,000  Level Fort Worth Center
Fri 06:41:22 PM 34.0528 -94.8264 278° West 431 496 34,000 -300 Level Fort Worth Center
Fri 06:42:22 PM 34.0681 -94.9664 265° West 431 496 33,400 -800 Descending Fort Worth Center
Fri 06:43:22 PM 34.0583 -95.1094 261° West 424 488 32,400 -950 Descending Fort Worth Center
Fri 06:44:22 PM 34.0400 -95.2506 251° West 424 488 31,500 -1,000 Descending Fort Worth Center
Fri 06:45:22 PM 34.0006 -95.3892 235° Southwest 429 494 30,400 -1,800 Descending Fort Worth Center
Fri 06:46:22 PM 33.9336 -95.5058 238° Southwest 429 494 27,900 -2,050 Descending Fort Worth Center
Fri 06:47:22 PM 33.8747 -95.6197 247° West 424 488 26,300 -1,800 Descending Fort Worth Center
Fri 06:48:22 PM 33.8344 -95.7331 247° West 393 452 24,300 -2,150 Descending Fort Worth Center
Fri 06:49:22 PM 33.7922 -95.8514 240° Southwest 380 437 22,000 -2,550 Descending Fort Worth Center
Fri 06:50:22 PM 33.7433 -95.9547 229° Southwest 370 426 19,200 -2,600 Descending Fort Worth Center
Fri 06:51:22 PM 33.6858 -96.0331 227° Southwest 360 414 16,800 -2,400 Descending Fort Worth Center
Fri 06:52:22 PM 33.6136 -96.1264 232° Southwest 354 407 14,400 -2,077 Descending Fort Worth Center
Fri 06:53:06 PM 33.5756 -96.1853 229° Southwest 324 373 13,200 -1,643 Descending FAA TRACON SMA TRACON (SMA)
Fri 06:53:46 PM 33.5344 -96.2414 225° Southwest 322 371 12,100 -1,350 Descending FAA TRACON SMA TRACON (SMA)
Fri 06:54:26 PM 33.4908 -96.2928 227° Southwest 317 365 11,400 -889 Descending FAA TRACON SMA TRACON (SMA)
Fri 06:55:07 PM 33.4553 -96.3389 226° Southwest 305 351 10,900 -370 Descending FAA TRACON SMA TRACON (SMA)
Fri 06:55:47 PM 33.4175 -96.3856 225° Southwest 281 323 10,900 -375 Level FAA TRACON SMA TRACON (SMA)
Fri 06:56:27 PM 33.3794 -96.4311 224° Southwest 278 320 10,400 -900 Descending FAA TRACON SMA TRACON (SMA)
Fri 06:57:07 PM 33.3458 -96.4706 224° Southwest 274 315 9,700 -1,350 Descending FAA TRACON SMA TRACON (SMA)
Fri 06:57:47 PM 33.3083 -96.5139 205° Southwest 270 311 8,600 -1,519 Descending FAA TRACON SMA TRACON (SMA)
Fri 06:58:26 PM 33.2622 -96.5394 202° Southwest 264 304 7,700 -1,443 Descending FAA TRACON SMA TRACON (SMA)
Fri 06:59:06 PM 33.2197 -96.5597 203° Southwest 265 305 6,700 -1,080 Descending FAA TRACON SMA TRACON (SMA)
Fri 07:00:06 PM 33.1533 -96.5939 194° South 254 292 5,900 -480 Descending FAA TRACON SMA TRACON (SMA)
Fri 07:00:46 PM 33.1097 -96.6064 181° South 237 273 5,900  Level FAA TRACON SMA TRACON (SMA)
Fri 07:01:26 PM 33.0647 -96.6078 182° South 233 268 5,900 -450 Level FAA TRACON SMA TRACON (SMA)
Fri 07:02:06 PM 33.0244 -96.6097 183° South 234 269 5,300 -750 Descending FAA TRACON SMA TRACON (SMA)
Fri 07:02:46 PM 32.9794 -96.6125 209° Southwest 232 267 4,900 -225 Descending FAA TRACON SMA TRACON (SMA)
Fri 07:03:26 PM 32.9419 -96.6378 213° Southwest 226 260 5,000  Climbing FAA TRACON SMA TRACON (SMA)
Fri 07:04:06 PM 32.9094 -96.6631 212° Southwest 229 264 4,900  Descending FAA TRACON SMA TRACON (SMA)
Fri 07:04:46 PM 32.8728 -96.6908 221° Southwest 227 261 5,000  Climbing FAA TRACON SMA TRACON (SMA)
Fri 07:05:26 PM 32.8400 -96.7242 223° Southwest 225 259 4,900 -375 Descending FAA TRACON SMA TRACON (SMA)
Fri 07:06:06 PM 32.8114 -96.7561 223° Southwest 227 261 4,500 -600 Descending FAA TRACON SMA TRACON (SMA)
Fri 07:06:46 PM 32.7797 -96.7914 262° West 229 264 4,100 -675 Descending FAA TRACON SMA TRACON (SMA)
Fri 07:07:26 PM 32.7750 -96.8303 289° West 209 241 3,600 -815 Descending FAA TRACON SMA TRACON (SMA)
Fri 07:08:07 PM 32.7867 -96.8708 315° West 192 221 3,000 -741 Descending FAA TRACON SMA TRACON (SMA)
Fri 07:08:47 PM 32.8117 -96.9011 315° West 187 215 2,600 -600 Descending FAA TRACON SMA TRACON (SMA)

Login

Don't have an account? Register now (free) for customized features, flight alerts, and more!